Weather reports worldwide

Advertisment
Figueras Castropol, Spain (8009): temperature & dewpoint: 10.01.2018 08:00:00 - 16.01.2018 08:00:00 (CET)Figueras Castropol, Spain (8009): wind speed & gusts: 10.01.2018 08:00:00 - 16.01.2018 08:00:00 (CET)Figueras Castropol, Spain (8009): wind direction: 10.01.2018 08:00:00 - 16.01.2018 08:00:00 (CET)Figueras Castropol, Spain (8009): precipitation: 10.01.2018 08:00:00 - 16.01.2018 08:00:00 (CET)
Date & Time tt [°C] td [°C] ff [km/h] ff [kn] fx [km/h] fx [kn] dd rr [mm]
16.01.2018 08:00:00 13,2 9,0 16 9 44 24 SW 0,0
16.01.2018 07:00:00 13,0 9,0 16 8 34 18 SW -
16.01.2018 06:00:00 13,0 8,9 13 7 34 18 SW 0,0
16.01.2018 05:00:00 12,9 8,9 14 8 41 22 SW 0,0
16.01.2018 04:00:00 13,0 9,3 18 10 43 23 WSW 0,0
16.01.2018 03:00:00 12,5 9,2 17 9 38 20 SW 0,0
16.01.2018 02:00:00 12,5 9,2 19 10 45 24 SW 0,0
16.01.2018 01:00:00 12,2 8,8 19 11 42 23 SW -
16.01.2018 00:00:00 11,6 8,4 22 12 47 25 SW 0,0
15.01.2018 23:00:00 11,3 8,0 23 12 53 28 SW 0,0
15.01.2018 22:00:00 11,3 7,3 21 11 61 33 SW 0,0
15.01.2018 21:00:00 11,2 6,5 23 12 51 27 SW 0,0
15.01.2018 20:00:00 11,0 6,1 23 12 51 28 SSW 0,0
15.01.2018 19:00:00 10,9 5,8 26 14 59 32 SSW -
15.01.2018 18:00:00 11,0 5,3 31 17 66 35 SSW 0,0
15.01.2018 17:00:00 10,9 5,0 29 16 59 32 SSW 0,0
15.01.2018 16:00:00 11,3 5,1 27 15 59 32 SSW 0,0
15.01.2018 15:00:00 11,0 4,3 27 15 62 34 SSW 0,1
15.01.2018 14:00:00 10,8 3,8 22 12 59 32 SSW 0,0
15.01.2018 13:00:00 10,0 3,2 25 14 51 28 SSW -
15.01.2018 12:00:00 9,7 3,0 19 11 41 22 SSW 0,0
15.01.2018 11:00:00 8,8 2,9 21 11 39 21 SSW 0,0
15.01.2018 10:00:00 7,5 2,7 16 8 31 17 SSW 0,0
15.01.2018 09:00:00 5,8 2,3 13 7 27 14 S 0,0
15.01.2018 08:00:00 5,1 2,1 13 7 28 15 S 0,0
15.01.2018 07:00:00 5,2 2,3 13 7 26 14 S -
15.01.2018 06:00:00 4,9 2,5 15 8 29 16 S 0,0
15.01.2018 05:00:00 4,2 2,3 13 7 26 14 S 0,0
15.01.2018 04:00:00 3,7 1,9 12 7 22 12 S 0,0
15.01.2018 03:00:00 3,8 2,1 12 6 24 13 S 0,0
15.01.2018 02:00:00 4,2 2,5 12 7 26 14 S 0,0
15.01.2018 01:00:00 4,3 2,9 15 8 26 14 SSW -
15.01.2018 00:00:00 4,4 2,9 11 6 22 12 SSW 0,0
14.01.2018 23:00:00 5,1 3,6 12 6 21 11 S 0,0
14.01.2018 22:00:00 5,6 3,8 8 5 19 11 SSW 0,0
14.01.2018 21:00:00 6,5 4,5 9 5 18 10 SSW 0,0
14.01.2018 20:00:00 7,4 5,0 6 4 12 7 SSW 0,0
14.01.2018 19:00:00 8,0 5,3 5 3 10 5 SSW -
14.01.2018 18:00:00 9,6 5,8 1 0 5 3 S 0,0
14.01.2018 17:00:00 10,9 5,6 0 0 4 2 W 0,0
14.01.2018 16:00:00 12,2 6,2 1 1 4 2 SW 0,0
14.01.2018 15:00:00 11,3 7,0 1 1 16 8 ESE 0,3
14.01.2018 14:00:00 10,3 4,5 5 3 18 10 W 1,5
14.01.2018 13:00:00 10,6 5,0 8 4 19 10 SSW -
14.01.2018 12:00:00 10,6 5,0 9 5 26 14 SSW 0,0
14.01.2018 11:00:00 8,2 3,8 11 6 23 12 SSW 0,0
14.01.2018 10:00:00 6,4 3,6 11 6 20 11 S 0,0
14.01.2018 09:00:00 5,8 3,4 11 6 21 11 S 0,0
14.01.2018 08:00:00 5,9 3,6 10 5 23 12 SSW 0,0
14.01.2018 07:00:00 5,8 3,8 10 5 19 10 S -
14.01.2018 06:00:00 6,0 3,9 10 6 24 13 S 1,3
14.01.2018 05:00:00 6,9 3,8 11 6 25 13 SW 0,0
14.01.2018 04:00:00 7,0 3,4 11 6 23 13 SSW 0,0
14.01.2018 03:00:00 6,8 3,0 10 6 27 14 SSW 0,0
14.01.2018 02:00:00 6,7 2,9 13 7 26 14 SSW 0,0
14.01.2018 01:00:00 7,2 3,0 11 6 30 16 SW -
14.01.2018 00:00:00 7,1 3,4 13 7 29 16 SSW 0,0
13.01.2018 23:00:00 7,5 3,6 14 8 27 14 SSW 0,0
13.01.2018 22:00:00 7,6 3,6 14 7 24 13 SSW 0,1
13.01.2018 21:00:00 7,9 3,6 11 6 24 13 SSW 0,2
13.01.2018 20:00:00 7,6 3,6 8 4 16 9 SSW 0,0
13.01.2018 19:00:00 8,3 3,8 8 4 23 12 SSW -
13.01.2018 18:00:00 9,5 4,1 11 6 21 12 SSW 0,0
13.01.2018 17:00:00 11,2 5,9 6 3 16 9 SW 0,0
13.01.2018 16:00:00 11,6 5,6 8 5 27 14 WSW 0,1
13.01.2018 15:00:00 11,3 5,6 13 7 24 13 SSW 0,0
13.01.2018 14:00:00 10,6 5,9 11 6 30 16 SW 0,0
13.01.2018 13:00:00 10,4 6,1 13 7 27 14 SW -
13.01.2018 12:00:00 9,3 6,1 11 6 26 14 SSW 0,0
13.01.2018 11:00:00 8,8 6,1 10 6 24 13 SSW 0,0
13.01.2018 10:00:00 8,3 6,7 11 6 21 11 S 0,0
13.01.2018 09:00:00 8,3 7,0 10 5 22 12 S 0,1
13.01.2018 08:00:00 8,0 7,3 9 5 26 14 SSW 0,1
13.01.2018 07:00:00 7,8 7,0 11 6 23 12 S -
13.01.2018 06:00:00 7,6 6,5 3 1 6 3 SW 0,3
13.01.2018 05:00:00 7,6 6,2 0 0 8 4 W 0,3
13.01.2018 04:00:00 7,8 5,9 4 2 10 5 NE 1,6
13.01.2018 03:00:00 8,2 5,3 4 2 16 9 ESE 2,9
13.01.2018 02:00:00 10,6 3,4 3 1 11 6 ESE 0,0
13.01.2018 01:00:00 11,6 2,7 4 2 18 10 SSW -
13.01.2018 00:00:00 11,0 3,0 8 5 16 9 S 0,0
12.01.2018 23:00:00 10,9 2,7 10 5 23 12 S 0,0
12.01.2018 22:00:00 9,4 1,7 1 1 13 7 S 0,0
12.01.2018 21:00:00 10,3 2,1 4 2 17 9 ESE 0,0
12.01.2018 20:00:00 10,5 2,9 2 1 20 11 S 0,0
12.01.2018 19:00:00 9,6 4,5 3 1 14 8 E -
12.01.2018 18:00:00 9,8 4,1 1 1 9 5 S 0,0
12.01.2018 17:00:00 10,6 4,6 2 1 9 5 SSE 0,0
12.01.2018 16:00:00 10,6 4,1 2 1 27 15 SSE 0,0
12.01.2018 15:00:00 9,9 3,4 13 7 29 16 SSW 0,0
12.01.2018 14:00:00 9,5 3,9 13 7 23 12 S 0,0
12.01.2018 13:00:00 9,2 3,9 10 6 19 10 S -
12.01.2018 12:00:00 8,1 4,1 10 5 22 12 S 0,0
12.01.2018 11:00:00 6,5 3,2 12 7 23 12 SSW 0,0
12.01.2018 10:00:00 6,1 3,0 10 6 21 12 S 0,0
12.01.2018 09:00:00 6,0 3,0 11 6 25 13 SSW 0,0
12.01.2018 08:00:00 5,9 3,0 10 5 21 11 S 0,0
12.01.2018 07:00:00 6,3 3,4 10 5 19 10 S -
12.01.2018 06:00:00 6,9 3,9 9 5 19 10 SSW 0,0
12.01.2018 05:00:00 7,3 4,1 8 5 19 10 SSW 0,0
12.01.2018 04:00:00 8,1 4,5 10 5 19 10 SW 0,0
12.01.2018 03:00:00 8,4 4,6 10 5 20 11 SSW 0,0
12.01.2018 02:00:00 8,3 5,0 8 4 20 11 SSW 0,0
12.01.2018 01:00:00 8,1 4,8 8 4 20 11 SSW -
12.01.2018 00:00:00 8,0 4,8 8 4 22 12 SSW 0,0
11.01.2018 23:00:00 8,6 4,6 9 5 16 9 SW 0,0
11.01.2018 22:00:00 9,1 5,1 8 4 18 10 SSW 0,0
11.01.2018 21:00:00 9,1 5,1 9 5 18 10 SSW 0,0
11.01.2018 20:00:00 9,1 4,6 10 5 21 12 SSW 0,0
11.01.2018 19:00:00 9,4 5,0 10 5 20 11 WSW -
11.01.2018 18:00:00 9,9 4,5 11 6 27 14 WSW 0,0
11.01.2018 17:00:00 10,5 4,5 16 9 34 19 W 0,0
11.01.2018 16:00:00 10,8 3,9 13 7 29 16 W 0,0
11.01.2018 15:00:00 11,2 3,9 16 9 34 18 W 0,0
11.01.2018 14:00:00 10,7 4,3 11 6 28 15 SW 0,0
11.01.2018 13:00:00 10,1 4,6 16 9 34 18 SSW -
11.01.2018 12:00:00 8,9 4,3 18 10 31 17 SSW 0,0
11.01.2018 11:00:00 7,6 3,8 16 9 31 17 SSW 0,0
11.01.2018 10:00:00 6,1 3,2 14 8 33 18 SSW 0,4
11.01.2018 09:00:00 6,2 2,9 12 6 32 17 SSW 0,0
11.01.2018 08:00:00 5,8 3,4 16 8 29 16 SSW 0,4
11.01.2018 07:00:00 6,5 3,8 9 5 37 20 WSW -
11.01.2018 06:00:00 5,9 3,6 11 6 29 16 SSW 1,3
11.01.2018 05:00:00 6,1 3,2 13 7 30 16 SSW 0,0
11.01.2018 04:00:00 6,4 3,6 16 8 41 22 SW 0,7
11.01.2018 03:00:00 7,0 3,8 16 9 32 17 SSW 0,3
11.01.2018 02:00:00 7,1 4,5 8 5 37 20 WSW 0,9
11.01.2018 01:00:00 7,0 4,1 13 7 31 17 SW -
11.01.2018 00:00:00 6,9 4,1 14 8 29 15 SW 1,5
10.01.2018 23:00:00 6,9 3,6 13 7 41 22 SW 1,2
10.01.2018 22:00:00 6,9 3,2 19 10 43 23 SSW 0,0
10.01.2018 21:00:00 7,6 2,9 21 11 43 23 SSW 0,0
10.01.2018 20:00:00 7,8 3,0 18 10 42 23 SSW 0,0
10.01.2018 19:00:00 7,9 4,1 9 5 35 19 WSW -
10.01.2018 18:00:00 7,1 3,4 19 10 42 23 W 2,9
10.01.2018 17:00:00 9,5 5,0 13 7 57 31 WNW 0,6
10.01.2018 16:00:00 8,8 3,8 18 10 37 20 W 0,0
10.01.2018 15:00:00 8,8 4,8 14 8 52 28 SSW 1,0
10.01.2018 14:00:00 7,8 3,8 42 23 76 41 W 2,3
10.01.2018 13:00:00 11,3 6,2 21 11 44 24 SSW -
10.01.2018 12:00:00 8,9 4,6 22 12 63 34 SW 2,3
10.01.2018 11:00:00 11,4 5,0 26 14 56 30 SSW 0,4
10.01.2018 10:00:00 12,1 4,1 16 9 44 24 SSW 0,0
10.01.2018 09:00:00 11,1 4,3 19 10 52 28 SW 0,0
10.01.2018 08:00:00 11,0 4,8 18 10 40 21 SSW 0,0

tt = temperature
td = dewpoint
ff = wind speed
fx = gusts
dd = wind direction
rr = precipitation

Next stations